createdAt,value
2024-04-17T00:01:52.427Z,8.16
2024-04-17T00:04:18.784Z,8.10
2024-04-17T00:06:45.220Z,8.13
2024-04-17T00:09:12.301Z,8.14
2024-04-17T00:11:38.662Z,8.03
2024-04-17T00:14:05.287Z,8.00
2024-04-17T00:16:31.736Z,7.89
2024-04-17T00:18:58.111Z,7.81
2024-04-17T00:21:24.409Z,7.76
2024-04-17T00:23:51.825Z,7.78
2024-04-17T00:26:18.117Z,7.80
2024-04-17T00:28:44.468Z,7.81
2024-04-17T00:31:10.838Z,7.83
2024-04-17T00:33:37.327Z,7.88
2024-04-17T00:36:04.521Z,7.94
2024-04-17T00:38:30.838Z,7.93
2024-04-17T00:40:57.537Z,7.92
2024-04-17T00:43:24.057Z,7.97
2024-04-17T00:45:50.688Z,7.97
2024-04-17T00:48:17.111Z,8.04
2024-04-17T00:50:47.001Z,8.10
2024-04-17T00:53:16.247Z,8.01
2024-04-17T00:55:42.966Z,8.00
2024-04-17T00:58:10.560Z,8.05
2024-04-17T01:00:38.126Z,8.03
2024-04-17T01:03:05.211Z,7.99
2024-04-17T01:05:34.437Z,8.01
2024-04-17T01:08:01.983Z,8.03
2024-04-17T01:10:28.361Z,8.07
2024-04-17T01:12:54.687Z,8.02
2024-04-17T01:15:22.606Z,8.08
2024-04-17T01:17:49.792Z,8.10
2024-04-17T01:20:16.275Z,8.12
2024-04-17T01:22:42.607Z,8.16
2024-04-17T01:25:08.949Z,8.21
2024-04-17T01:27:35.386Z,8.10
2024-04-17T01:30:01.754Z,8.06
2024-04-17T01:32:28.304Z,7.94
2024-04-17T01:34:54.722Z,7.88
2024-04-17T01:37:21.205Z,7.95
2024-04-17T01:39:47.588Z,7.99
2024-04-17T01:42:14.005Z,7.94
2024-04-17T01:44:40.460Z,7.93
2024-04-17T01:47:07.055Z,7.79
2024-04-17T01:49:33.442Z,7.71
2024-04-17T01:51:59.761Z,7.78
2024-04-17T01:54:26.076Z,7.81
2024-04-17T01:56:52.713Z,7.76
2024-04-17T01:59:19.166Z,7.78
2024-04-17T02:01:46.666Z,7.82
2024-04-17T02:04:13.118Z,7.88
2024-04-17T02:06:39.438Z,7.93
2024-04-17T02:09:05.784Z,7.90
2024-04-17T02:11:32.128Z,7.80
2024-04-17T02:13:58.501Z,7.78
2024-04-17T02:16:24.931Z,7.78
2024-04-17T02:18:51.362Z,7.79
2024-04-17T02:21:17.761Z,7.76
2024-04-17T02:23:47.795Z,7.72
2024-04-17T02:26:14.152Z,7.73
2024-04-17T02:28:40.501Z,7.70
2024-04-17T02:31:06.859Z,7.69
2024-04-17T02:33:34.090Z,7.64
2024-04-17T02:36:00.536Z,7.67
2024-04-17T02:38:26.857Z,7.59
2024-04-17T02:40:53.375Z,7.58
2024-04-17T02:43:19.741Z,7.54
2024-04-17T02:45:46.026Z,7.55
2024-04-17T02:48:12.353Z,7.50
2024-04-17T02:50:40.508Z,7.51
2024-04-17T02:53:06.825Z,7.45
2024-04-17T02:55:33.235Z,7.44
2024-04-17T02:57:59.723Z,7.49
2024-04-17T03:00:29.092Z,7.47
2024-04-17T03:02:56.824Z,7.47
2024-04-17T03:05:27.156Z,7.45
2024-04-17T03:07:53.692Z,7.46
2024-04-17T03:10:20.124Z,7.44
2024-04-17T03:12:46.564Z,7.48
2024-04-17T03:15:13.481Z,7.50
2024-04-17T03:17:40.202Z,7.48
2024-04-17T03:20:06.767Z,7.52
2024-04-17T03:22:33.065Z,7.57
2024-04-17T03:24:59.385Z,7.57
2024-04-17T03:27:25.667Z,7.63
2024-04-17T03:29:52.018Z,7.55
2024-04-17T03:32:18.346Z,7.56
2024-04-17T03:34:48.218Z,7.58
2024-04-17T03:37:15.032Z,7.66
2024-04-17T03:39:41.692Z,7.58
2024-04-17T03:42:08.047Z,7.61
2024-04-17T03:44:34.383Z,7.64
2024-04-17T03:47:00.800Z,7.56
2024-04-17T03:49:27.723Z,7.55
2024-04-17T03:51:54.250Z,7.62
2024-04-17T03:54:20.565Z,7.66
2024-04-17T03:56:46.898Z,7.71
2024-04-17T03:59:13.287Z,7.75
2024-04-17T04:01:39.656Z,7.74
2024-04-17T04:04:06.221Z,7.77
2024-04-17T04:06:32.647Z,7.73
2024-04-17T04:08:58.966Z,7.74
2024-04-17T04:11:25.326Z,7.73
2024-04-17T04:13:51.876Z,7.76
2024-04-17T04:16:18.164Z,7.75
2024-04-17T04:18:44.462Z,7.79
2024-04-17T04:21:10.752Z,7.83
2024-04-17T04:23:37.070Z,7.83
2024-04-17T04:26:03.503Z,7.78
2024-04-17T04:28:30.289Z,7.80
2024-04-17T04:30:56.637Z,7.80
2024-04-17T04:33:23.045Z,7.88
2024-04-17T04:35:49.429Z,7.81
2024-04-17T04:38:15.775Z,7.85
2024-04-17T04:40:43.087Z,7.88
2024-04-17T04:43:09.481Z,7.88
2024-04-17T04:45:36.222Z,7.86
2024-04-17T04:48:02.643Z,7.86
2024-04-17T04:50:29.055Z,7.86
2024-04-17T04:52:55.468Z,7.92
2024-04-17T04:55:21.995Z,7.85
2024-04-17T04:57:48.383Z,7.75
2024-04-17T05:00:14.800Z,7.79
2024-04-17T05:02:41.150Z,7.80
2024-04-17T05:05:07.700Z,7.84
2024-04-17T05:07:36.100Z,8.00
2024-04-17T05:10:03.181Z,7.95
2024-04-17T05:12:29.612Z,8.01
2024-04-17T05:14:55.932Z,7.99
2024-04-17T05:17:22.310Z,8.05
2024-04-17T05:19:49.832Z,8.07
2024-04-17T05:22:16.052Z,7.91
2024-04-17T05:24:42.358Z,7.88
2024-04-17T05:27:08.781Z,7.80
2024-04-17T05:29:35.062Z,7.60
2024-04-17T05:32:01.562Z,7.50
2024-04-17T05:34:28.721Z,7.48
2024-04-17T05:36:55.121Z,7.54
2024-04-17T05:39:21.446Z,7.50
2024-04-17T05:41:47.848Z,7.41
2024-04-17T05:44:14.151Z,7.44
2024-04-17T05:46:40.509Z,7.55
2024-04-17T05:49:07.585Z,7.55
2024-04-17T05:51:34.084Z,7.55
2024-04-17T05:54:00.469Z,7.58
2024-04-17T05:56:26.845Z,7.63
2024-04-17T05:58:53.308Z,7.67
2024-04-17T06:01:19.704Z,7.68
2024-04-17T06:03:46.048Z,7.82
2024-04-17T06:06:12.528Z,7.92
2024-04-17T06:08:41.356Z,7.94
2024-04-17T06:11:08.315Z,7.94
2024-04-17T06:13:34.949Z,8.03
2024-04-17T06:16:01.312Z,8.09
2024-04-17T06:18:27.790Z,8.18
2024-04-17T06:20:54.083Z,8.36
2024-04-17T06:23:20.393Z,8.45
2024-04-17T06:25:47.991Z,8.63
2024-04-17T06:28:14.630Z,8.84
2024-04-17T06:30:41.215Z,8.97
2024-04-17T06:33:07.763Z,9.07
2024-04-17T06:35:34.466Z,9.15
2024-04-17T06:38:01.048Z,9.25
2024-04-17T06:40:27.646Z,9.26
2024-04-17T06:42:53.975Z,9.18
2024-04-17T06:45:20.394Z,9.21
2024-04-17T06:47:46.913Z,9.33
2024-04-17T06:50:13.380Z,9.45
2024-04-17T06:52:39.814Z,9.47
2024-04-17T06:55:06.338Z,9.54
2024-04-17T06:57:32.708Z,9.47
2024-04-17T06:59:59.012Z,9.38
2024-04-17T07:02:25.392Z,9.39
2024-04-17T07:04:51.898Z,9.47
2024-04-17T07:07:18.360Z,9.40
2024-04-17T07:09:44.687Z,9.50
2024-04-17T07:12:11.260Z,9.42
2024-04-17T07:14:37.770Z,9.62
2024-04-17T07:17:04.236Z,9.96
2024-04-17T07:19:30.706Z,9.97
2024-04-17T07:21:57.081Z,10.12
2024-04-17T07:24:26.317Z,10.15
2024-04-17T07:26:53.815Z,10.27
2024-04-17T07:29:20.320Z,10.37
2024-04-17T07:31:46.951Z,10.38
2024-04-17T07:34:13.392Z,10.27
2024-04-17T07:36:40.503Z,10.12
2024-04-17T07:39:06.835Z,10.21
2024-04-17T07:41:33.222Z,10.33
2024-04-17T07:43:59.626Z,10.18
2024-04-17T07:46:26.099Z,10.00
2024-04-17T07:48:52.424Z,10.04
2024-04-17T07:51:18.843Z,10.25
2024-04-17T07:53:45.182Z,10.27
2024-04-17T07:56:11.596Z,10.16
2024-04-17T07:58:38.327Z,10.14
2024-04-17T08:01:06.785Z,10.26
2024-04-17T08:03:33.270Z,10.04
2024-04-17T08:05:59.646Z,9.79
2024-04-17T08:08:25.951Z,9.52
2024-04-17T08:10:52.412Z,9.14
2024-04-17T08:13:18.905Z,9.32
2024-04-17T08:15:49.450Z,9.47
2024-04-17T08:18:15.865Z,9.61
2024-04-17T08:20:42.282Z,9.97
2024-04-17T08:23:09.181Z,10.45
2024-04-17T08:25:35.870Z,10.91
2024-04-17T08:28:02.285Z,11.25
2024-04-17T08:30:29.017Z,11.32
2024-04-17T08:32:55.596Z,11.09
2024-04-17T08:35:22.655Z,11.00
2024-04-17T08:37:49.618Z,10.94
2024-04-17T08:40:16.242Z,10.72
2024-04-17T08:42:43.082Z,10.71
2024-04-17T08:45:12.140Z,10.62
2024-04-17T08:47:42.599Z,10.66
2024-04-17T08:50:11.757Z,10.59
2024-04-17T08:52:40.597Z,10.63
2024-04-17T08:55:08.324Z,10.57
2024-04-17T08:57:35.929Z,10.43
2024-04-17T09:00:02.503Z,10.21
2024-04-17T09:02:30.704Z,10.11
2024-04-17T09:05:04.197Z,10.02
2024-04-17T09:07:37.959Z,9.86
2024-04-17T09:10:05.973Z,9.92
2024-04-17T09:12:32.428Z,9.97
2024-04-17T09:14:59.280Z,9.91
2024-04-17T09:17:29.077Z,9.82
2024-04-17T09:19:57.146Z,9.69
2024-04-17T09:22:24.588Z,9.73
2024-04-17T09:24:50.969Z,9.71
2024-04-17T09:27:18.714Z,9.73
2024-04-17T09:29:45.192Z,9.91
2024-04-17T09:32:19.559Z,10.19
2024-04-17T09:34:45.997Z,10.33
2024-04-17T09:37:13.745Z,10.55
2024-04-17T09:39:40.304Z,10.65
2024-04-17T09:42:13.458Z,10.92
2024-04-17T09:44:41.229Z,11.30
2024-04-17T09:47:12.921Z,11.87
2024-04-17T09:49:45.692Z,12.24
2024-04-17T09:52:18.576Z,12.55
2024-04-17T09:54:45.500Z,12.54
2024-04-17T09:57:12.567Z,12.30
2024-04-17T09:59:40.222Z,12.54
2024-04-17T10:02:12.610Z,12.57
2024-04-17T10:04:39.920Z,12.47
2024-04-17T10:07:10.357Z,12.47
2024-04-17T10:09:37.286Z,12.47
2024-04-17T10:12:04.734Z,12.90
2024-04-17T10:14:32.059Z,13.43
2024-04-17T10:16:58.558Z,13.82
2024-04-17T10:19:25.138Z,13.84
2024-04-17T10:21:54.673Z,13.57
2024-04-17T10:24:21.016Z,12.78
2024-04-17T10:26:50.114Z,12.19
2024-04-17T10:29:24.425Z,11.99
2024-04-17T10:31:56.894Z,11.69
2024-04-17T10:34:24.559Z,12.06
2024-04-17T10:36:55.601Z,12.40
2024-04-17T10:39:22.179Z,13.00
2024-04-17T10:41:48.643Z,13.61
2024-04-17T10:44:15.192Z,14.29
2024-04-17T10:46:41.779Z,14.59
2024-04-17T10:49:19.230Z,15.05
2024-04-17T10:51:45.863Z,15.04
2024-04-17T10:54:13.073Z,14.66
2024-04-17T10:56:39.468Z,14.45
2024-04-17T10:59:06.016Z,14.52
2024-04-17T11:01:32.832Z,14.58
2024-04-17T11:03:59.708Z,14.65
2024-04-17T11:06:26.228Z,14.75
2024-04-17T11:08:58.228Z,14.75
2024-04-17T11:11:28.031Z,15.03
2024-04-17T11:13:54.794Z,15.46
2024-04-17T11:16:21.427Z,16.15
2024-04-17T11:18:48.278Z,16.46
2024-04-17T11:21:14.925Z,16.25
2024-04-17T11:23:45.306Z,16.07
2024-04-17T11:26:13.020Z,16.40
2024-04-17T11:28:44.054Z,16.65
2024-04-17T11:31:12.376Z,16.98
2024-04-17T11:33:39.719Z,17.49
2024-04-17T11:36:06.927Z,17.96
2024-04-17T11:38:33.327Z,18.54
2024-04-17T11:41:02.214Z,18.90
2024-04-17T11:43:29.819Z,19.39
2024-04-17T11:45:57.211Z,19.01
2024-04-17T11:48:24.219Z,19.03
2024-04-17T11:50:50.803Z,18.93
2024-04-17T11:53:17.152Z,19.21
2024-04-17T11:55:43.771Z,18.61
2024-04-17T11:58:10.267Z,18.03
2024-04-17T12:00:36.655Z,18.25
2024-04-17T12:03:03.070Z,18.26
2024-04-17T12:05:29.786Z,18.47
2024-04-17T12:07:57.833Z,18.78
2024-04-17T12:10:24.315Z,18.78
2024-04-17T12:12:50.705Z,19.07
2024-04-17T12:15:17.122Z,19.21
2024-04-17T12:17:43.640Z,19.84
2024-04-17T12:20:11.404Z,19.35
2024-04-17T12:22:38.592Z,18.72
2024-04-17T12:25:24.427Z,18.48
2024-04-17T12:27:50.717Z,17.96
2024-04-17T12:30:17.186Z,17.77
2024-04-17T12:32:43.598Z,17.70
2024-04-17T12:35:12.074Z,17.55
2024-04-17T12:37:39.840Z,17.30
2024-04-17T12:40:07.666Z,17.07
2024-04-17T12:42:33.982Z,16.27
2024-04-17T12:45:00.522Z,15.81
2024-04-17T12:47:26.906Z,15.41
2024-04-17T12:49:53.262Z,14.96
2024-04-17T12:52:19.658Z,14.65
2024-04-17T12:54:45.990Z,14.24
2024-04-17T12:57:12.643Z,14.21
2024-04-17T12:59:38.965Z,14.19
2024-04-17T13:02:08.194Z,14.35
2024-04-17T13:04:36.258Z,14.98
2024-04-17T13:07:04.494Z,15.60
2024-04-17T13:09:30.946Z,16.57
2024-04-17T13:11:57.333Z,17.41
2024-04-17T13:14:23.709Z,18.53
2024-04-17T13:16:50.046Z,19.63
2024-04-17T13:19:16.390Z,19.34
2024-04-17T13:21:42.843Z,18.80
2024-04-17T13:24:09.275Z,17.64
2024-04-17T13:26:35.650Z,17.63
2024-04-17T13:29:02.048Z,17.60
2024-04-17T13:31:28.367Z,17.83
2024-04-17T13:33:54.732Z,18.21
2024-04-17T13:36:21.061Z,18.35
2024-04-17T13:38:47.341Z,18.65
2024-04-17T13:41:15.916Z,18.92
2024-04-17T13:43:42.800Z,19.36
2024-04-17T13:46:11.418Z,19.59
2024-04-17T13:48:38.913Z,19.76
2024-04-17T13:51:07.890Z,19.85
2024-04-17T13:53:35.608Z,20.72
2024-04-17T13:56:02.174Z,20.81
2024-04-17T13:58:29.226Z,21.28
2024-04-17T14:00:58.569Z,21.40
2024-04-17T14:03:26.554Z,21.41
2024-04-17T14:05:53.352Z,20.70
2024-04-17T14:08:21.756Z,20.06
2024-04-17T14:10:50.078Z,19.61
2024-04-17T14:13:16.932Z,19.18
2024-04-17T14:15:43.706Z,19.51
2024-04-17T14:18:10.817Z,18.87
2024-04-17T14:20:38.397Z,18.35
2024-04-17T14:23:05.221Z,18.42
2024-04-17T14:25:32.205Z,18.57
2024-04-17T14:27:59.049Z,19.35
2024-04-17T14:30:25.674Z,19.87
2024-04-17T14:32:52.155Z,20.31
2024-04-17T14:35:18.616Z,21.04
2024-04-17T14:37:44.934Z,21.49
2024-04-17T14:40:11.318Z,21.05
2024-04-17T14:42:37.970Z,21.52
2024-04-17T14:45:05.535Z,22.00
2024-04-17T14:47:32.857Z,22.52
2024-04-17T14:49:59.204Z,22.33
2024-04-17T14:52:25.479Z,22.34
2024-04-17T14:54:51.769Z,21.92
2024-04-17T14:57:19.042Z,20.83
2024-04-17T14:59:45.474Z,19.81
2024-04-17T15:02:11.782Z,18.91
2024-04-17T15:04:38.199Z,18.09
2024-04-17T15:07:04.804Z,17.76
2024-04-17T15:09:31.655Z,17.26
2024-04-17T15:11:59.130Z,16.98
2024-04-17T15:14:25.476Z,16.57
2024-04-17T15:16:51.814Z,16.02
2024-04-17T15:19:18.207Z,15.55
2024-04-17T15:21:44.643Z,15.04
2024-04-17T15:24:15.551Z,14.41
2024-04-17T15:26:41.986Z,13.78
2024-04-17T15:29:08.363Z,13.10
2024-04-17T15:31:34.632Z,12.69
2024-04-17T15:34:01.008Z,12.25
2024-04-17T15:36:28.051Z,11.69
2024-04-17T15:38:57.685Z,11.41
2024-04-17T15:41:27.368Z,11.11
2024-04-17T15:43:53.707Z,10.67
2024-04-17T15:46:20.269Z,10.54
2024-04-17T15:48:47.591Z,10.48
2024-04-17T15:51:15.103Z,10.31
2024-04-17T15:53:46.322Z,10.13
2024-04-17T15:56:21.279Z,9.92
2024-04-17T15:58:48.816Z,9.76
2024-04-17T16:01:15.767Z,9.70
2024-04-17T16:03:43.098Z,9.72
2024-04-17T16:06:11.475Z,9.86
2024-04-17T16:08:37.824Z,10.00
2024-04-17T16:11:05.214Z,9.86
2024-04-17T16:13:35.764Z,10.05
2024-04-17T16:16:03.134Z,10.44
2024-04-17T16:18:30.253Z,10.56
2024-04-17T16:20:57.317Z,10.39
2024-04-17T16:23:28.913Z,10.26
2024-04-17T16:25:55.679Z,10.18
2024-04-17T16:28:22.057Z,10.04
2024-04-17T16:30:49.163Z,9.61
2024-04-17T16:33:15.630Z,9.40
2024-04-17T16:35:42.039Z,9.24
2024-04-17T16:38:08.393Z,9.13
2024-04-17T16:40:36.772Z,9.22
2024-04-17T16:43:03.672Z,9.36
2024-04-17T16:45:30.577Z,9.44
2024-04-17T16:47:57.156Z,9.43
2024-04-17T16:50:23.579Z,9.21
2024-04-17T16:52:50.448Z,9.20
2024-04-17T16:55:23.436Z,9.08
2024-04-17T16:57:49.755Z,8.90
2024-04-17T17:00:16.358Z,8.82
2024-04-17T17:02:42.851Z,8.67
2024-04-17T17:05:09.225Z,8.52
2024-04-17T17:07:35.707Z,8.45
2024-04-17T17:10:02.484Z,8.45
2024-04-17T17:12:28.876Z,8.44
2024-04-17T17:14:55.385Z,8.41
2024-04-17T17:17:21.710Z,8.32
2024-04-17T17:19:48.558Z,8.24
2024-04-17T17:22:17.559Z,8.21
2024-04-17T17:24:43.923Z,8.18
2024-04-17T17:27:10.415Z,8.19
2024-04-17T17:29:36.764Z,8.05
2024-04-17T17:32:06.008Z,8.00
2024-04-17T17:34:33.071Z,8.01
2024-04-17T17:36:59.509Z,7.96
2024-04-17T17:39:27.575Z,7.95
2024-04-17T17:41:54.389Z,7.85
2024-04-17T17:44:20.768Z,7.78
2024-04-17T17:46:47.138Z,7.83
2024-04-17T17:49:15.516Z,7.78
2024-04-17T17:51:42.060Z,7.80
2024-04-17T17:54:08.671Z,7.74
2024-04-17T17:56:35.211Z,7.82
2024-04-17T17:59:02.358Z,7.60
2024-04-17T18:01:31.069Z,7.55
2024-04-17T18:03:58.037Z,7.54
2024-04-17T18:06:24.702Z,7.58
2024-04-17T18:08:51.838Z,7.72
2024-04-17T18:11:20.832Z,7.78
2024-04-17T18:13:48.452Z,7.70
2024-04-17T18:16:20.600Z,7.47
2024-04-17T18:18:55.948Z,7.35
2024-04-17T18:21:22.396Z,7.35
2024-04-17T18:23:49.269Z,7.29
2024-04-17T18:26:19.409Z,7.08
2024-04-17T18:28:47.324Z,7.02
2024-04-17T18:31:14.676Z,7.02
2024-04-17T18:33:43.316Z,7.07
2024-04-17T18:36:14.386Z,7.13
2024-04-17T18:38:42.166Z,6.92
2024-04-17T18:41:10.418Z,6.93
2024-04-17T18:43:39.384Z,7.02
2024-04-17T18:46:11.711Z,7.17
2024-04-17T18:48:38.936Z,7.18
2024-04-17T18:51:05.431Z,7.17
2024-04-17T18:53:31.871Z,7.26
2024-04-17T18:56:05.479Z,7.39
2024-04-17T18:58:33.876Z,7.53
2024-04-17T19:01:04.549Z,7.75
2024-04-17T19:03:31.088Z,7.77
2024-04-17T19:05:58.699Z,7.72
2024-04-17T19:08:25.550Z,7.63
2024-04-17T19:10:52.580Z,7.66
2024-04-17T19:13:19.395Z,7.68
2024-04-17T19:15:46.656Z,7.65
2024-04-17T19:18:13.336Z,7.62
2024-04-17T19:20:59.669Z,7.64
2024-04-17T19:23:27.358Z,7.68
2024-04-17T19:25:54.622Z,7.71
2024-04-17T19:28:23.372Z,7.74
2024-04-17T19:31:04.706Z,7.66
2024-04-17T19:33:36.188Z,7.58
2024-04-17T19:36:16.213Z,7.57
2024-04-17T19:38:52.579Z,7.54
2024-04-17T19:41:23.886Z,7.50
2024-04-17T19:43:59.791Z,7.37
2024-04-17T19:46:27.371Z,7.36
2024-04-17T19:48:54.365Z,7.34
2024-04-17T19:51:22.450Z,7.23
2024-04-17T19:53:49.058Z,7.11
2024-04-17T19:56:20.541Z,7.10
2024-04-17T19:58:50.424Z,7.06
2024-04-17T20:01:18.482Z,6.95
2024-04-17T20:03:45.243Z,6.76
2024-04-17T20:06:13.063Z,6.80
2024-04-17T20:08:40.455Z,6.80
2024-04-17T20:11:09.975Z,6.72
2024-04-17T20:13:36.470Z,6.62
2024-04-17T20:16:04.799Z,6.48
2024-04-17T20:18:32.426Z,6.41
2024-04-17T20:21:01.252Z,6.45
2024-04-17T20:23:33.954Z,6.54
2024-04-17T20:26:05.354Z,6.56
2024-04-17T20:28:36.341Z,6.55
2024-04-17T20:31:07.735Z,6.63
2024-04-17T20:33:36.943Z,6.63
2024-04-17T20:36:05.374Z,6.70
2024-04-17T20:38:33.641Z,6.68
2024-04-17T20:41:04.011Z,6.67
2024-04-17T20:43:31.682Z,6.80
2024-04-17T20:46:10.775Z,6.80
2024-04-17T20:48:37.353Z,6.67
2024-04-17T20:51:04.447Z,6.71
2024-04-17T20:53:31.096Z,6.69
2024-04-17T20:55:58.563Z,6.62
2024-04-17T20:58:25.430Z,6.67
2024-04-17T21:00:59.279Z,6.64
2024-04-17T21:03:27.035Z,6.54
2024-04-17T21:05:58.127Z,6.63
2024-04-17T21:08:24.521Z,6.66
2024-04-17T21:11:08.878Z,6.70
2024-04-17T21:13:36.995Z,6.66
2024-04-17T21:16:09.129Z,6.62
2024-04-17T21:18:36.933Z,6.65
2024-04-17T21:21:04.494Z,6.65
2024-04-17T21:23:32.464Z,6.57
2024-04-17T21:25:58.866Z,6.61
2024-04-17T21:28:25.591Z,6.53
2024-04-17T21:30:54.239Z,6.47
2024-04-17T21:33:26.952Z,6.48
2024-04-17T21:35:54.639Z,6.55
2024-04-17T21:38:21.215Z,6.64
2024-04-17T21:40:56.293Z,6.64
2024-04-17T21:43:24.135Z,6.67
2024-04-17T21:45:50.964Z,6.68
2024-04-17T21:48:17.637Z,6.76
2024-04-17T21:50:44.104Z,6.60
2024-04-17T21:53:10.441Z,6.54
2024-04-17T21:55:36.797Z,6.56
2024-04-17T21:58:03.339Z,6.61
2024-04-17T22:00:29.748Z,6.68
2024-04-17T22:02:56.225Z,6.62
2024-04-17T22:05:22.553Z,6.63
2024-04-17T22:07:49.498Z,6.64
2024-04-17T22:10:15.848Z,6.77
2024-04-17T22:12:42.740Z,6.73
2024-04-17T22:15:09.202Z,6.73
2024-04-17T22:17:36.973Z,6.78
2024-04-17T22:20:04.018Z,6.67
2024-04-17T22:22:30.540Z,6.78
2024-04-17T22:24:56.951Z,6.81
2024-04-17T22:27:23.376Z,6.71
2024-04-17T22:29:49.840Z,6.64
2024-04-17T22:32:16.258Z,6.60
2024-04-17T22:34:42.739Z,6.68
2024-04-17T22:37:09.144Z,6.70
2024-04-17T22:39:35.489Z,6.73
2024-04-17T22:42:01.966Z,6.76
2024-04-17T22:44:28.237Z,6.81
2024-04-17T22:46:54.567Z,6.88
2024-04-17T22:49:20.883Z,6.76
2024-04-17T22:51:47.233Z,6.69
2024-04-17T22:54:13.571Z,6.55
2024-04-17T22:56:43.418Z,6.53
2024-04-17T22:59:09.884Z,6.48
2024-04-17T23:01:36.285Z,6.47
2024-04-17T23:04:02.959Z,6.58
2024-04-17T23:06:29.577Z,6.56
2024-04-17T23:08:55.961Z,6.56
2024-04-17T23:11:22.417Z,6.57
2024-04-17T23:13:50.566Z,6.51
2024-04-17T23:16:16.887Z,6.43
2024-04-17T23:18:43.237Z,6.49
2024-04-17T23:21:09.845Z,6.46
2024-04-17T23:23:36.454Z,6.53
2024-04-17T23:26:02.781Z,6.49
2024-04-17T23:28:29.072Z,6.43
2024-04-17T23:30:55.326Z,6.42
2024-04-17T23:33:21.788Z,6.45
2024-04-17T23:35:48.168Z,6.36
2024-04-17T23:38:14.761Z,6.31
2024-04-17T23:40:41.105Z,6.34
2024-04-17T23:43:07.414Z,6.34
2024-04-17T23:45:33.874Z,6.34
2024-04-17T23:48:00.435Z,6.35
2024-04-17T23:50:26.878Z,6.31
2024-04-17T23:52:53.231Z,6.24
2024-04-17T23:55:19.565Z,6.18
2024-04-17T23:57:45.994Z,6.11
